Terminal Aerodrome Forecast
Issued by NWS

Home | Current Version | Previous Version | Text Only | Print | Product List | Glossary Off
Versions: 1 2 3 4 5 6 7 8 9 10 11 12 13 14 15 16 17 18

879
FTUS43 KTOP 182320
TAFFOE
TAF
KFOE 182320Z 1900/1924 18005KT P6SM FEW250
     FM191100 17004KT 3SM BR SCT150
     FM191400 17008KT 5SM BR OVC011
     FM191800 17012KT P6SM BKN022=

USA.gov is the U.S. government's official web portal to all federal, state and local government web resources and services.